sensor_id;sensor_type;location;lat;lon;timestamp;P1;durP1;ratioP1;P2;durP2;ratioP2
11394;SDS011;5753;54.402;10.220;2023-06-22T00:01:06;12.75;;;5.70;;
11394;SDS011;5753;54.402;10.220;2023-06-22T00:03:32;18.55;;;6.32;;
11394;SDS011;5753;54.402;10.220;2023-06-22T00:05:58;6.20;;;5.05;;
11394;SDS011;5753;54.402;10.220;2023-06-22T00:08:24;9.50;;;5.47;;
11394;SDS011;5753;54.402;10.220;2023-06-22T00:10:51;8.02;;;5.72;;
11394;SDS011;5753;54.402;10.220;2023-06-22T00:13:17;5.53;;;4.85;;
11394;SDS011;5753;54.402;10.220;2023-06-22T00:15:43;6.55;;;4.03;;
11394;SDS011;5753;54.402;10.220;2023-06-22T00:18:10;7.03;;;5.03;;
11394;SDS011;5753;54.402;10.220;2023-06-22T00:20:38;7.80;;;4.25;;
11394;SDS011;5753;54.402;10.220;2023-06-22T00:23:05;7.65;;;4.32;;
11394;SDS011;5753;54.402;10.220;2023-06-22T00:25:35;10.95;;;5.90;;
11394;SDS011;5753;54.402;10.220;2023-06-22T00:28:02;8.68;;;5.57;;
11394;SDS011;5753;54.402;10.220;2023-06-22T00:30:29;6.35;;;4.93;;
11394;SDS011;5753;54.402;10.220;2023-06-22T00:32:56;7.78;;;6.97;;
11394;SDS011;5753;54.402;10.220;2023-06-22T00:35:23;10.43;;;6.05;;
11394;SDS011;5753;54.402;10.220;2023-06-22T00:37:57;9.95;;;6.70;;
11394;SDS011;5753;54.402;10.220;2023-06-22T00:40:28;8.25;;;6.97;;
11394;SDS011;5753;54.402;10.220;2023-06-22T00:42:55;7.60;;;5.90;;
11394;SDS011;5753;54.402;10.220;2023-06-22T00:45:22;7.10;;;6.32;;
11394;SDS011;5753;54.402;10.220;2023-06-22T00:47:52;10.07;;;7.93;;
11394;SDS011;5753;54.402;10.220;2023-06-22T00:50:21;10.05;;;6.95;;
11394;SDS011;5753;54.402;10.220;2023-06-22T00:52:52;9.55;;;6.47;;
11394;SDS011;5753;54.402;10.220;2023-06-22T00:55:21;10.68;;;7.10;;
11394;SDS011;5753;54.402;10.220;2023-06-22T00:57:48;7.18;;;5.53;;
11394;SDS011;5753;54.402;10.220;2023-06-22T01:00:15;11.45;;;7.10;;
11394;SDS011;5753;54.402;10.220;2023-06-22T01:02:44;10.02;;;7.70;;
11394;SDS011;5753;54.402;10.220;2023-06-22T01:05:12;7.13;;;5.45;;
11394;SDS011;5753;54.402;10.220;2023-06-22T01:07:44;8.77;;;7.90;;
11394;SDS011;5753;54.402;10.220;2023-06-22T01:13:21;7.40;;;6.63;;
11394;SDS011;5753;54.402;10.220;2023-06-22T01:16:26;11.02;;;6.75;;
11394;SDS011;5753;54.402;10.220;2023-06-22T01:19:07;9.18;;;6.63;;
11394;SDS011;5753;54.402;10.220;2023-06-22T01:21:49;9.07;;;8.07;;
11394;SDS011;5753;54.402;10.220;2023-06-22T01:24:30;11.20;;;6.70;;
11394;SDS011;5753;54.402;10.220;2023-06-22T01:29:47;9.07;;;6.78;;
11394;SDS011;5753;54.402;10.220;2023-06-22T01:32:17;7.88;;;6.50;;
11394;SDS011;5753;54.402;10.220;2023-06-22T01:34:44;8.98;;;5.72;;
11394;SDS011;5753;54.402;10.220;2023-06-22T01:37:12;8.10;;;7.30;;
11394;SDS011;5753;54.402;10.220;2023-06-22T01:39:39;12.07;;;6.05;;
11394;SDS011;5753;54.402;10.220;2023-06-22T01:42:07;6.88;;;6.00;;
11394;SDS011;5753;54.402;10.220;2023-06-22T01:44:33;9.32;;;6.35;;
11394;SDS011;5753;54.402;10.220;2023-06-22T01:47:00;11.65;;;8.18;;
11394;SDS011;5753;54.402;10.220;2023-06-22T01:49:26;8.70;;;6.70;;
11394;SDS011;5753;54.402;10.220;2023-06-22T01:51:55;14.00;;;8.00;;
11394;SDS011;5753;54.402;10.220;2023-06-22T01:54:21;8.45;;;7.07;;
11394;SDS011;5753;54.402;10.220;2023-06-22T01:56:47;8.05;;;6.68;;
11394;SDS011;5753;54.402;10.220;2023-06-22T01:59:16;11.00;;;6.95;;
11394;SDS011;5753;54.402;10.220;2023-06-22T02:01:58;7.38;;;5.40;;
11394;SDS011;5753;54.402;10.220;2023-06-22T02:04:34;11.05;;;7.72;;
11394;SDS011;5753;54.402;10.220;2023-06-22T02:07:05;12.32;;;8.40;;
11394;SDS011;5753;54.402;10.220;2023-06-22T02:09:38;15.75;;;8.30;;
11394;SDS011;5753;54.402;10.220;2023-06-22T02:12:08;10.68;;;8.18;;
11394;SDS011;5753;54.402;10.220;2023-06-22T02:14:37;14.40;;;7.78;;
11394;SDS011;5753;54.402;10.220;2023-06-22T02:17:04;9.68;;;7.40;;
11394;SDS011;5753;54.402;10.220;2023-06-22T02:19:36;11.52;;;7.10;;
11394;SDS011;5753;54.402;10.220;2023-06-22T02:22:03;12.25;;;7.90;;
11394;SDS011;5753;54.402;10.220;2023-06-22T02:24:29;15.30;;;9.70;;
11394;SDS011;5753;54.402;10.220;2023-06-22T02:27:00;8.45;;;7.35;;
11394;SDS011;5753;54.402;10.220;2023-06-22T02:29:27;13.10;;;9.10;;
11394;SDS011;5753;54.402;10.220;2023-06-22T02:31:54;36.47;;;9.80;;
11394;SDS011;5753;54.402;10.220;2023-06-22T02:34:21;9.30;;;8.13;;
11394;SDS011;5753;54.402;10.220;2023-06-22T02:36:47;9.68;;;7.28;;
11394;SDS011;5753;54.402;10.220;2023-06-22T02:39:26;13.38;;;6.20;;
11394;SDS011;5753;54.402;10.220;2023-06-22T02:41:53;11.52;;;7.65;;
11394;SDS011;5753;54.402;10.220;2023-06-22T02:44:19;10.75;;;7.70;;
11394;SDS011;5753;54.402;10.220;2023-06-22T02:46:46;15.55;;;8.90;;
11394;SDS011;5753;54.402;10.220;2023-06-22T02:49:13;9.65;;;7.28;;
11394;SDS011;5753;54.402;10.220;2023-06-22T02:51:42;7.97;;;6.97;;
11394;SDS011;5753;54.402;10.220;2023-06-22T02:54:11;11.73;;;9.27;;
11394;SDS011;5753;54.402;10.220;2023-06-22T02:56:37;7.07;;;5.88;;
11394;SDS011;5753;54.402;10.220;2023-06-22T02:59:05;11.20;;;6.85;;
11394;SDS011;5753;54.402;10.220;2023-06-22T03:01:31;9.95;;;7.90;;
11394;SDS011;5753;54.402;10.220;2023-06-22T03:04:03;12.45;;;8.27;;
11394;SDS011;5753;54.402;10.220;2023-06-22T03:06:29;10.93;;;7.75;;
11394;SDS011;5753;54.402;10.220;2023-06-22T03:08:59;7.68;;;6.90;;
11394;SDS011;5753;54.402;10.220;2023-06-22T03:11:28;7.80;;;6.93;;
11394;SDS011;5753;54.402;10.220;2023-06-22T03:13:55;13.95;;;7.35;;
11394;SDS011;5753;54.402;10.220;2023-06-22T03:16:21;11.13;;;7.78;;
11394;SDS011;5753;54.402;10.220;2023-06-22T03:18:47;10.00;;;7.88;;
11394;SDS011;5753;54.402;10.220;2023-06-22T03:21:13;11.20;;;7.43;;
11394;SDS011;5753;54.402;10.220;2023-06-22T03:23:40;9.15;;;7.85;;
11394;SDS011;5753;54.402;10.220;2023-06-22T03:26:07;11.55;;;9.63;;
11394;SDS011;5753;54.402;10.220;2023-06-22T03:28:33;11.18;;;7.30;;
11394;SDS011;5753;54.402;10.220;2023-06-22T03:30:59;11.48;;;7.78;;
11394;SDS011;5753;54.402;10.220;2023-06-22T03:33:25;12.82;;;9.35;;
11394;SDS011;5753;54.402;10.220;2023-06-22T03:35:51;9.25;;;8.30;;
11394;SDS011;5753;54.402;10.220;2023-06-22T03:38:18;10.45;;;8.20;;
11394;SDS011;5753;54.402;10.220;2023-06-22T03:40:44;14.27;;;8.55;;
11394;SDS011;5753;54.402;10.220;2023-06-22T03:43:11;13.00;;;10.48;;
11394;SDS011;5753;54.402;10.220;2023-06-22T03:45:37;10.48;;;8.48;;
11394;SDS011;5753;54.402;10.220;2023-06-22T03:48:03;17.58;;;8.00;;
11394;SDS011;5753;54.402;10.220;2023-06-22T03:50:29;10.77;;;8.95;;
11394;SDS011;5753;54.402;10.220;2023-06-22T03:52:55;13.68;;;9.45;;
11394;SDS011;5753;54.402;10.220;2023-06-22T03:55:22;13.27;;;9.43;;
11394;SDS011;5753;54.402;10.220;2023-06-22T03:57:48;16.50;;;9.50;;
11394;SDS011;5753;54.402;10.220;2023-06-22T04:00:14;8.23;;;6.60;;
11394;SDS011;5753;54.402;10.220;2023-06-22T04:02:41;12.80;;;8.93;;
11394;SDS011;5753;54.402;10.220;2023-06-22T04:05:08;7.90;;;7.07;;
11394;SDS011;5753;54.402;10.220;2023-06-22T04:07:34;10.52;;;6.53;;
11394;SDS011;5753;54.402;10.220;2023-06-22T04:10:02;8.93;;;7.65;;
11394;SDS011;5753;54.402;10.220;2023-06-22T04:12:29;9.35;;;7.03;;
11394;SDS011;5753;54.402;10.220;2023-06-22T04:14:55;7.50;;;6.63;;
11394;SDS011;5753;54.402;10.220;2023-06-22T04:17:21;10.98;;;8.82;;
11394;SDS011;5753;54.402;10.220;2023-06-22T04:19:49;9.98;;;6.50;;
11394;SDS011;5753;54.402;10.220;2023-06-22T04:22:16;7.68;;;5.53;;
11394;SDS011;5753;54.402;10.220;2023-06-22T04:24:42;9.70;;;7.25;;
11394;SDS011;5753;54.402;10.220;2023-06-22T04:27:09;11.60;;;8.57;;
11394;SDS011;5753;54.402;10.220;2023-06-22T04:29:35;8.13;;;5.80;;
11394;SDS011;5753;54.402;10.220;2023-06-22T04:32:03;7.68;;;6.45;;
11394;SDS011;5753;54.402;10.220;2023-06-22T04:34:30;10.18;;;7.85;;
11394;SDS011;5753;54.402;10.220;2023-06-22T04:36:56;9.38;;;5.95;;
11394;SDS011;5753;54.402;10.220;2023-06-22T04:39:23;8.00;;;7.03;;
11394;SDS011;5753;54.402;10.220;2023-06-22T04:41:49;9.45;;;7.15;;
11394;SDS011;5753;54.402;10.220;2023-06-22T04:44:17;10.93;;;6.20;;
11394;SDS011;5753;54.402;10.220;2023-06-22T04:46:49;8.85;;;4.50;;
11394;SDS011;5753;54.402;10.220;2023-06-22T04:49:20;7.38;;;5.13;;
11394;SDS011;5753;54.402;10.220;2023-06-22T04:51:47;8.50;;;5.53;;
11394;SDS011;5753;54.402;10.220;2023-06-22T04:54:13;7.72;;;5.82;;
11394;SDS011;5753;54.402;10.220;2023-06-22T04:56:39;5.60;;;4.32;;
11394;SDS011;5753;54.402;10.220;2023-06-22T04:59:06;7.32;;;5.60;;
11394;SDS011;5753;54.402;10.220;2023-06-22T05:01:33;9.27;;;4.57;;
11394;SDS011;5753;54.402;10.220;2023-06-22T05:04:00;5.80;;;4.85;;
11394;SDS011;5753;54.402;10.220;2023-06-22T05:06:27;7.32;;;5.05;;
11394;SDS011;5753;54.402;10.220;2023-06-22T05:08:54;4.90;;;4.30;;
11394;SDS011;5753;54.402;10.220;2023-06-22T05:11:23;8.48;;;5.28;;
11394;SDS011;5753;54.402;10.220;2023-06-22T05:13:50;6.50;;;4.55;;
11394;SDS011;5753;54.402;10.220;2023-06-22T05:16:16;7.20;;;4.43;;
11394;SDS011;5753;54.402;10.220;2023-06-22T05:18:42;6.53;;;4.60;;
11394;SDS011;5753;54.402;10.220;2023-06-22T05:21:08;5.50;;;4.90;;
11394;SDS011;5753;54.402;10.220;2023-06-22T05:23:34;7.30;;;4.60;;
11394;SDS011;5753;54.402;10.220;2023-06-22T05:26:00;7.53;;;5.35;;
11394;SDS011;5753;54.402;10.220;2023-06-22T05:28:26;8.63;;;6.13;;
11394;SDS011;5753;54.402;10.220;2023-06-22T05:30:52;18.13;;;7.72;;
11394;SDS011;5753;54.402;10.220;2023-06-22T05:33:19;8.75;;;6.95;;
11394;SDS011;5753;54.402;10.220;2023-06-22T05:35:45;8.00;;;7.05;;
11394;SDS011;5753;54.402;10.220;2023-06-22T05:38:11;13.00;;;7.45;;
11394;SDS011;5753;54.402;10.220;2023-06-22T05:40:38;9.35;;;8.15;;
11394;SDS011;5753;54.402;10.220;2023-06-22T05:43:04;23.10;;;8.65;;
11394;SDS011;5753;54.402;10.220;2023-06-22T05:45:30;10.10;;;7.90;;
11394;SDS011;5753;54.402;10.220;2023-06-22T05:47:56;9.93;;;6.78;;
11394;SDS011;5753;54.402;10.220;2023-06-22T05:50:22;7.45;;;6.82;;
11394;SDS011;5753;54.402;10.220;2023-06-22T05:52:48;9.70;;;5.47;;
11394;SDS011;5753;54.402;10.220;2023-06-22T05:55:14;10.40;;;6.65;;
11394;SDS011;5753;54.402;10.220;2023-06-22T05:57:40;5.97;;;5.35;;
11394;SDS011;5753;54.402;10.220;2023-06-22T06:00:06;7.03;;;6.47;;
11394;SDS011;5753;54.402;10.220;2023-06-22T06:02:35;10.00;;;5.10;;
11394;SDS011;5753;54.402;10.220;2023-06-22T06:05:02;10.38;;;6.05;;
11394;SDS011;5753;54.402;10.220;2023-06-22T06:07:28;7.70;;;6.32;;
11394;SDS011;5753;54.402;10.220;2023-06-22T06:09:54;8.65;;;5.70;;
11394;SDS011;5753;54.402;10.220;2023-06-22T06:12:21;8.95;;;4.68;;
11394;SDS011;5753;54.402;10.220;2023-06-22T06:14:47;11.63;;;6.68;;
11394;SDS011;5753;54.402;10.220;2023-06-22T06:17:13;5.85;;;4.63;;
11394;SDS011;5753;54.402;10.220;2023-06-22T06:19:39;4.70;;;4.22;;
11394;SDS011;5753;54.402;10.220;2023-06-22T06:22:05;16.35;;;7.90;;
11394;SDS011;5753;54.402;10.220;2023-06-22T06:24:31;5.95;;;4.60;;
11394;SDS011;5753;54.402;10.220;2023-06-22T06:26:57;7.28;;;5.97;;
11394;SDS011;5753;54.402;10.220;2023-06-22T06:29:23;7.13;;;5.15;;
11394;SDS011;5753;54.402;10.220;2023-06-22T06:31:49;10.27;;;5.43;;
11394;SDS011;5753;54.402;10.220;2023-06-22T06:34:15;6.35;;;5.72;;
11394;SDS011;5753;54.402;10.220;2023-06-22T06:36:41;7.00;;;5.22;;
11394;SDS011;5753;54.402;10.220;2023-06-22T06:39:08;7.13;;;4.53;;
11394;SDS011;5753;54.402;10.220;2023-06-22T06:41:37;6.25;;;5.20;;
11394;SDS011;5753;54.402;10.220;2023-06-22T06:44:03;4.65;;;3.60;;
11394;SDS011;5753;54.402;10.220;2023-06-22T06:46:29;5.10;;;4.25;;
11394;SDS011;5753;54.402;10.220;2023-06-22T06:48:55;5.05;;;4.45;;
11394;SDS011;5753;54.402;10.220;2023-06-22T06:51:21;7.80;;;4.93;;
11394;SDS011;5753;54.402;10.220;2023-06-22T06:53:47;7.88;;;5.40;;
11394;SDS011;5753;54.402;10.220;2023-06-22T06:56:14;4.35;;;3.95;;
11394;SDS011;5753;54.402;10.220;2023-06-22T06:58:41;4.53;;;3.78;;
11394;SDS011;5753;54.402;10.220;2023-06-22T07:01:07;6.30;;;4.40;;
11394;SDS011;5753;54.402;10.220;2023-06-22T07:03:33;4.45;;;4.05;;
11394;SDS011;5753;54.402;10.220;2023-06-22T07:06:00;6.53;;;4.30;;
11394;SDS011;5753;54.402;10.220;2023-06-22T07:08:26;2.97;;;2.35;;
11394;SDS011;5753;54.402;10.220;2023-06-22T07:10:52;4.43;;;3.17;;
11394;SDS011;5753;54.402;10.220;2023-06-22T07:13:18;4.82;;;3.03;;
11394;SDS011;5753;54.402;10.220;2023-06-22T07:15:44;3.40;;;2.10;;
11394;SDS011;5753;54.402;10.220;2023-06-22T07:18:10;2.65;;;2.05;;
11394;SDS011;5753;54.402;10.220;2023-06-22T07:20:36;3.72;;;2.40;;
11394;SDS011;5753;54.402;10.220;2023-06-22T07:23:04;2.83;;;2.63;;
11394;SDS011;5753;54.402;10.220;2023-06-22T07:25:30;4.55;;;2.63;;
11394;SDS011;5753;54.402;10.220;2023-06-22T07:27:57;5.85;;;2.60;;
11394;SDS011;5753;54.402;10.220;2023-06-22T07:30:28;3.00;;;2.22;;
11394;SDS011;5753;54.402;10.220;2023-06-22T07:32:56;3.58;;;2.10;;
11394;SDS011;5753;54.402;10.220;2023-06-22T07:35:23;7.07;;;3.28;;
11394;SDS011;5753;54.402;10.220;2023-06-22T07:37:49;7.18;;;2.47;;
11394;SDS011;5753;54.402;10.220;2023-06-22T07:40:15;2.20;;;2.00;;
11394;SDS011;5753;54.402;10.220;2023-06-22T07:42:41;5.88;;;2.00;;
11394;SDS011;5753;54.402;10.220;2023-06-22T07:45:09;8.45;;;3.28;;
11394;SDS011;5753;54.402;10.220;2023-06-22T07:47:35;3.22;;;2.22;;
11394;SDS011;5753;54.402;10.220;2023-06-22T07:50:01;6.75;;;2.70;;
11394;SDS011;5753;54.402;10.220;2023-06-22T07:52:29;4.35;;;2.33;;
11394;SDS011;5753;54.402;10.220;2023-06-22T07:54:55;2.55;;;2.10;;
11394;SDS011;5753;54.402;10.220;2023-06-22T07:57:21;3.83;;;3.38;;
11394;SDS011;5753;54.402;10.220;2023-06-22T07:59:47;2.83;;;2.17;;
11394;SDS011;5753;54.402;10.220;2023-06-22T08:02:13;2.60;;;2.00;;
11394;SDS011;5753;54.402;10.220;2023-06-22T08:04:39;2.72;;;2.28;;
11394;SDS011;5753;54.402;10.220;2023-06-22T08:07:06;2.55;;;2.20;;
11394;SDS011;5753;54.402;10.220;2023-06-22T08:09:32;5.22;;;2.60;;
11394;SDS011;5753;54.402;10.220;2023-06-22T08:11:59;8.23;;;3.40;;
11394;SDS011;5753;54.402;10.220;2023-06-22T08:14:25;2.80;;;2.60;;
11394;SDS011;5753;54.402;10.220;2023-06-22T08:16:52;2.85;;;2.28;;
11394;SDS011;5753;54.402;10.220;2023-06-22T08:19:18;3.50;;;3.20;;
11394;SDS011;5753;54.402;10.220;2023-06-22T08:21:46;3.42;;;2.97;;
11394;SDS011;5753;54.402;10.220;2023-06-22T08:24:12;4.05;;;2.55;;
11394;SDS011;5753;54.402;10.220;2023-06-22T08:26:38;4.20;;;3.20;;
11394;SDS011;5753;54.402;10.220;2023-06-22T08:29:04;7.65;;;3.47;;
11394;SDS011;5753;54.402;10.220;2023-06-22T08:31:31;4.75;;;2.90;;
11394;SDS011;5753;54.402;10.220;2023-06-22T08:34:00;7.53;;;3.22;;
11394;SDS011;5753;54.402;10.220;2023-06-22T08:36:26;3.67;;;2.33;;
11394;SDS011;5753;54.402;10.220;2023-06-22T08:38:57;5.05;;;3.55;;
11394;SDS011;5753;54.402;10.220;2023-06-22T08:41:26;3.58;;;2.72;;
11394;SDS011;5753;54.402;10.220;2023-06-22T08:43:52;3.70;;;3.33;;
11394;SDS011;5753;54.402;10.220;2023-06-22T08:46:19;3.13;;;1.85;;
11394;SDS011;5753;54.402;10.220;2023-06-22T08:48:48;4.53;;;3.28;;
11394;SDS011;5753;54.402;10.220;2023-06-22T08:51:15;4.63;;;2.42;;
11394;SDS011;5753;54.402;10.220;2023-06-22T08:53:42;4.05;;;3.13;;
11394;SDS011;5753;54.402;10.220;2023-06-22T08:56:10;2.15;;;1.80;;
11394;SDS011;5753;54.402;10.220;2023-06-22T08:58:36;10.85;;;2.83;;
11394;SDS011;5753;54.402;10.220;2023-06-22T09:01:02;3.22;;;1.88;;
11394;SDS011;5753;54.402;10.220;2023-06-22T09:03:29;4.53;;;2.53;;
11394;SDS011;5753;54.402;10.220;2023-06-22T09:05:57;10.45;;;3.00;;
11394;SDS011;5753;54.402;10.220;2023-06-22T09:08:23;2.67;;;1.98;;
11394;SDS011;5753;54.402;10.220;2023-06-22T09:10:49;3.45;;;2.28;;
11394;SDS011;5753;54.402;10.220;2023-06-22T09:13:16;2.30;;;2.10;;
11394;SDS011;5753;54.402;10.220;2023-06-22T09:15:42;2.85;;;1.92;;
11394;SDS011;5753;54.402;10.220;2023-06-22T09:18:10;5.90;;;2.22;;
11394;SDS011;5753;54.402;10.220;2023-06-22T09:20:36;2.55;;;2.28;;
11394;SDS011;5753;54.402;10.220;2023-06-22T09:23:02;12.25;;;2.95;;
11394;SDS011;5753;54.402;10.220;2023-06-22T09:25:29;2.88;;;2.38;;
11394;SDS011;5753;54.402;10.220;2023-06-22T09:27:55;4.07;;;3.67;;
11394;SDS011;5753;54.402;10.220;2023-06-22T09:30:21;2.03;;;1.77;;
11394;SDS011;5753;54.402;10.220;2023-06-22T09:32:47;2.55;;;2.05;;
11394;SDS011;5753;54.402;10.220;2023-06-22T09:35:13;4.38;;;2.60;;
11394;SDS011;5753;54.402;10.220;2023-06-22T09:37:40;5.90;;;2.58;;
11394;SDS011;5753;54.402;10.220;2023-06-22T09:40:06;2.35;;;2.15;;
11394;SDS011;5753;54.402;10.220;2023-06-22T09:42:35;2.53;;;2.33;;
11394;SDS011;5753;54.402;10.220;2023-06-22T09:45:01;3.55;;;2.35;;
11394;SDS011;5753;54.402;10.220;2023-06-22T09:47:27;2.65;;;2.42;;
11394;SDS011;5753;54.402;10.220;2023-06-22T09:49:54;2.28;;;2.03;;
11394;SDS011;5753;54.402;10.220;2023-06-22T09:52:20;3.03;;;2.70;;
11394;SDS011;5753;54.402;10.220;2023-06-22T09:54:47;4.32;;;2.20;;
11394;SDS011;5753;54.402;10.220;2023-06-22T09:57:13;2.75;;;2.55;;
11394;SDS011;5753;54.402;10.220;2023-06-22T09:59:39;6.72;;;2.95;;
11394;SDS011;5753;54.402;10.220;2023-06-22T10:02:06;5.93;;;2.13;;
11394;SDS011;5753;54.402;10.220;2023-06-22T10:04:33;2.45;;;2.20;;
11394;SDS011;5753;54.402;10.220;2023-06-22T10:07:00;2.33;;;1.83;;
11394;SDS011;5753;54.402;10.220;2023-06-22T10:09:26;2.50;;;2.03;;
11394;SDS011;5753;54.402;10.220;2023-06-22T10:11:53;3.30;;;1.80;;
11394;SDS011;5753;54.402;10.220;2023-06-22T10:14:19;3.47;;;2.47;;
11394;SDS011;5753;54.402;10.220;2023-06-22T10:16:45;3.47;;;2.50;;
11394;SDS011;5753;54.402;10.220;2023-06-22T10:19:11;2.60;;;2.40;;
11394;SDS011;5753;54.402;10.220;2023-06-22T10:21:37;2.40;;;1.88;;
11394;SDS011;5753;54.402;10.220;2023-06-22T10:24:03;3.90;;;1.95;;
11394;SDS011;5753;54.402;10.220;2023-06-22T10:26:33;2.55;;;1.92;;
11394;SDS011;5753;54.402;10.220;2023-06-22T10:29:00;3.30;;;2.20;;
11394;SDS011;5753;54.402;10.220;2023-06-22T10:31:27;3.63;;;2.15;;
11394;SDS011;5753;54.402;10.220;2023-06-22T10:33:54;2.50;;;2.10;;
11394;SDS011;5753;54.402;10.220;2023-06-22T10:36:23;2.70;;;2.03;;
11394;SDS011;5753;54.402;10.220;2023-06-22T10:38:49;8.38;;;3.65;;
11394;SDS011;5753;54.402;10.220;2023-06-22T10:41:15;2.05;;;1.83;;
11394;SDS011;5753;54.402;10.220;2023-06-22T10:43:42;3.95;;;1.60;;
11394;SDS011;5753;54.402;10.220;2023-06-22T10:46:08;4.35;;;2.50;;
11394;SDS011;5753;54.402;10.220;2023-06-22T10:48:35;2.42;;;1.40;;
11394;SDS011;5753;54.402;10.220;2023-06-22T10:51:01;2.30;;;1.92;;
11394;SDS011;5753;54.402;10.220;2023-06-22T10:53:27;1.55;;;1.25;;
11394;SDS011;5753;54.402;10.220;2023-06-22T10:55:53;5.60;;;1.63;;
11394;SDS011;5753;54.402;10.220;2023-06-22T10:58:19;1.30;;;0.95;;
11394;SDS011;5753;54.402;10.220;2023-06-22T11:00:45;3.55;;;1.35;;
11394;SDS011;5753;54.402;10.220;2023-06-22T11:03:11;2.17;;;1.05;;
11394;SDS011;5753;54.402;10.220;2023-06-22T11:05:39;6.53;;;1.98;;
11394;SDS011;5753;54.402;10.220;2023-06-22T11:08:05;1.25;;;1.00;;
11394;SDS011;5753;54.402;10.220;2023-06-22T11:10:31;1.95;;;1.23;;
11394;SDS011;5753;54.402;10.220;2023-06-22T11:12:57;2.17;;;1.98;;
11394;SDS011;5753;54.402;10.220;2023-06-22T11:15:24;0.98;;;0.90;;
11394;SDS011;5753;54.402;10.220;2023-06-22T11:17:50;2.22;;;1.15;;
11394;SDS011;5753;54.402;10.220;2023-06-22T11:20:16;4.40;;;1.35;;
11394;SDS011;5753;54.402;10.220;2023-06-22T11:22:42;1.98;;;1.20;;
11394;SDS011;5753;54.402;10.220;2023-06-22T11:25:08;1.58;;;1.13;;
11394;SDS011;5753;54.402;10.220;2023-06-22T11:27:36;1.42;;;1.33;;
11394;SDS011;5753;54.402;10.220;2023-06-22T11:30:03;1.98;;;1.30;;
11394;SDS011;5753;54.402;10.220;2023-06-22T11:32:29;1.85;;;1.45;;
11394;SDS011;5753;54.402;10.220;2023-06-22T11:34:56;1.65;;;1.27;;
11394;SDS011;5753;54.402;10.220;2023-06-22T11:37:22;3.00;;;1.55;;
11394;SDS011;5753;54.402;10.220;2023-06-22T11:39:48;1.48;;;1.20;;
11394;SDS011;5753;54.402;10.220;2023-06-22T11:42:14;2.35;;;2.15;;
11394;SDS011;5753;54.402;10.220;2023-06-22T11:44:41;3.15;;;1.55;;
11394;SDS011;5753;54.402;10.220;2023-06-22T11:47:08;1.30;;;1.20;;
11394;SDS011;5753;54.402;10.220;2023-06-22T11:49:34;4.32;;;1.30;;
11394;SDS011;5753;54.402;10.220;2023-06-22T11:52:01;1.73;;;1.63;;
11394;SDS011;5753;54.402;10.220;2023-06-22T11:54:27;2.05;;;1.63;;
11394;SDS011;5753;54.402;10.220;2023-06-22T11:56:53;1.85;;;1.20;;
11394;SDS011;5753;54.402;10.220;2023-06-22T11:59:19;1.80;;;1.42;;
11394;SDS011;5753;54.402;10.220;2023-06-22T12:01:47;0.73;;;0.73;;
11394;SDS011;5753;54.402;10.220;2023-06-22T12:04:15;4.50;;;1.15;;
11394;SDS011;5753;54.402;10.220;2023-06-22T12:06:41;2.30;;;1.40;;
11394;SDS011;5753;54.402;10.220;2023-06-22T12:09:08;1.38;;;1.10;;
11394;SDS011;5753;54.402;10.220;2023-06-22T12:11:35;5.18;;;1.55;;
11394;SDS011;5753;54.402;10.220;2023-06-22T12:14:01;3.40;;;1.30;;
11394;SDS011;5753;54.402;10.220;2023-06-22T12:16:27;1.40;;;0.95;;
11394;SDS011;5753;54.402;10.220;2023-06-22T12:18:54;1.67;;;1.13;;
11394;SDS011;5753;54.402;10.220;2023-06-22T12:21:20;1.45;;;1.20;;
11394;SDS011;5753;54.402;10.220;2023-06-22T12:23:46;2.33;;;1.23;;
11394;SDS011;5753;54.402;10.220;2023-06-22T12:26:12;2.05;;;1.85;;
11394;SDS011;5753;54.402;10.220;2023-06-22T12:28:38;1.42;;;0.90;;
11394;SDS011;5753;54.402;10.220;2023-06-22T12:31:04;1.13;;;0.90;;
11394;SDS011;5753;54.402;10.220;2023-06-22T12:33:30;2.75;;;1.40;;
11394;SDS011;5753;54.402;10.220;2023-06-22T12:35:56;1.98;;;1.10;;
11394;SDS011;5753;54.402;10.220;2023-06-22T12:38:23;1.27;;;1.08;;
11394;SDS011;5753;54.402;10.220;2023-06-22T12:40:50;2.03;;;1.20;;
11394;SDS011;5753;54.402;10.220;2023-06-22T12:43:17;1.33;;;1.23;;
11394;SDS011;5753;54.402;10.220;2023-06-22T12:45:43;1.70;;;1.38;;
11394;SDS011;5753;54.402;10.220;2023-06-22T12:48:09;3.17;;;1.52;;
11394;SDS011;5753;54.402;10.220;2023-06-22T12:50:35;2.55;;;1.45;;
11394;SDS011;5753;54.402;10.220;2023-06-22T12:53:01;1.20;;;1.10;;
11394;SDS011;5753;54.402;10.220;2023-06-22T12:55:29;1.73;;;1.60;;
11394;SDS011;5753;54.402;10.220;2023-06-22T12:57:55;1.58;;;1.40;;
11394;SDS011;5753;54.402;10.220;2023-06-22T13:00:21;1.77;;;1.20;;
11394;SDS011;5753;54.402;10.220;2023-06-22T13:02:47;1.50;;;1.10;;
11394;SDS011;5753;54.402;10.220;2023-06-22T13:05:13;1.80;;;1.17;;
11394;SDS011;5753;54.402;10.220;2023-06-22T13:07:39;1.25;;;0.80;;
11394;SDS011;5753;54.402;10.220;2023-06-22T13:10:07;3.15;;;1.45;;
11394;SDS011;5753;54.402;10.220;2023-06-22T13:12:34;2.25;;;1.30;;
11394;SDS011;5753;54.402;10.220;2023-06-22T13:15:00;2.22;;;2.03;;
11394;SDS011;5753;54.402;10.220;2023-06-22T13:17:28;2.90;;;1.40;;
11394;SDS011;5753;54.402;10.220;2023-06-22T13:19:54;1.60;;;1.42;;
11394;SDS011;5753;54.402;10.220;2023-06-22T13:22:27;1.77;;;1.52;;
11394;SDS011;5753;54.402;10.220;2023-06-22T13:24:59;2.40;;;2.13;;
11394;SDS011;5753;54.402;10.220;2023-06-22T13:27:26;2.28;;;1.48;;
11394;SDS011;5753;54.402;10.220;2023-06-22T13:29:52;2.53;;;1.42;;
11394;SDS011;5753;54.402;10.220;2023-06-22T13:32:18;3.33;;;3.05;;
11394;SDS011;5753;54.402;10.220;2023-06-22T13:34:44;1.63;;;1.40;;
11394;SDS011;5753;54.402;10.220;2023-06-22T13:37:10;1.50;;;1.40;;
11394;SDS011;5753;54.402;10.220;2023-06-22T13:39:36;1.88;;;1.20;;
11394;SDS011;5753;54.402;10.220;2023-06-22T13:42:03;1.60;;;1.23;;
11394;SDS011;5753;54.402;10.220;2023-06-22T13:44:29;3.83;;;2.05;;
11394;SDS011;5753;54.402;10.220;2023-06-22T13:46:55;1.75;;;1.63;;
11394;SDS011;5753;54.402;10.220;2023-06-22T13:49:21;1.73;;;1.50;;
11394;SDS011;5753;54.402;10.220;2023-06-22T13:51:47;1.75;;;1.65;;
11394;SDS011;5753;54.402;10.220;2023-06-22T13:54:14;1.48;;;1.38;;
11394;SDS011;5753;54.402;10.220;2023-06-22T13:56:40;2.20;;;1.60;;
11394;SDS011;5753;54.402;10.220;2023-06-22T13:59:07;1.55;;;1.40;;
11394;SDS011;5753;54.402;10.220;2023-06-22T14:01:35;2.65;;;2.45;;
11394;SDS011;5753;54.402;10.220;2023-06-22T14:04:01;4.05;;;1.60;;
11394;SDS011;5753;54.402;10.220;2023-06-22T14:06:27;2.45;;;1.63;;
11394;SDS011;5753;54.402;10.220;2023-06-22T14:08:53;1.45;;;1.15;;
11394;SDS011;5753;54.402;10.220;2023-06-22T14:11:20;2.25;;;1.75;;
11394;SDS011;5753;54.402;10.220;2023-06-22T14:13:46;1.52;;;1.40;;
11394;SDS011;5753;54.402;10.220;2023-06-22T14:16:12;1.98;;;1.48;;
11394;SDS011;5753;54.402;10.220;2023-06-22T14:18:38;1.48;;;1.38;;
11394;SDS011;5753;54.402;10.220;2023-06-22T14:21:04;1.92;;;1.63;;
11394;SDS011;5753;54.402;10.220;2023-06-22T14:23:30;1.40;;;1.30;;
11394;SDS011;5753;54.402;10.220;2023-06-22T14:25:57;2.53;;;1.92;;
11394;SDS011;5753;54.402;10.220;2023-06-22T14:28:23;1.73;;;1.63;;
11394;SDS011;5753;54.402;10.220;2023-06-22T14:30:49;1.73;;;1.63;;
11394;SDS011;5753;54.402;10.220;2023-06-22T14:33:15;2.05;;;1.90;;
11394;SDS011;5753;54.402;10.220;2023-06-22T14:35:41;2.25;;;1.38;;
11394;SDS011;5753;54.402;10.220;2023-06-22T14:38:07;1.60;;;1.50;;
11394;SDS011;5753;54.402;10.220;2023-06-22T14:40:33;1.70;;;1.60;;
11394;SDS011;5753;54.402;10.220;2023-06-22T14:42:59;1.70;;;1.60;;
11394;SDS011;5753;54.402;10.220;2023-06-22T14:45:25;2.10;;;1.67;;
11394;SDS011;5753;54.402;10.220;2023-06-22T14:47:52;1.95;;;1.77;;
11394;SDS011;5753;54.402;10.220;2023-06-22T14:50:18;2.30;;;1.48;;